Time;durP1;ratioP1;P1;durP2;ratioP2;P2;SDS_P1;SDS_P2;PMS_P1;PMS_P2;Temp;Humidity;BMP_temperature;BMP_pressure;BME280_temperature;BME280_humidity;BME280_pressure;Samples;Min_cycle;Max_cycle;Signal;HPM_P1;HPM_P2
2021/08/18 00:00:43;;;;;;;4.37;1.80;;;;;;;27.28;46.76;100112.45;1739141;80;21039;-53
2021/08/18 00:03:09;;;;;;;2.60;1.80;;;;;;;27.28;46.80;100112.27;1738597;80;21504;-53
2021/08/18 00:05:36;;;;;;;3.65;1.90;;;;;;;27.28;46.81;100113.07;1741304;80;21046;-54
2021/08/18 00:08:03;;;;;;;4.30;1.98;;;;;;;27.28;46.83;100116.64;1742222;80;21552;-54
2021/08/18 00:10:30;;;;;;;2.70;1.70;;;;;;;27.28;46.88;100111.05;1737429;80;21094;-52
2021/08/18 00:12:57;;;;;;;4.30;2.15;;;;;;;27.29;46.90;100117.45;1736816;80;22135;-54
2021/08/18 00:15:23;;;;;;;2.33;1.60;;;;;;;27.28;46.93;100119.44;1740751;80;21058;-54
2021/08/18 00:17:49;;;;;;;3.90;1.70;;;;;;;27.28;46.95;100133.41;1741624;80;21090;-55
2021/08/18 00:20:16;;;;;;;2.77;1.72;;;;;;;27.30;46.98;100143.40;1734085;80;21051;-54
2021/08/18 00:22:43;;;;;;;3.12;1.57;;;;;;;27.30;46.97;100148.98;1739768;81;20978;-53
2021/08/18 00:25:09;;;;;;;3.62;1.62;;;;;;;27.28;47.04;100159.94;1747270;80;21571;-54
2021/08/18 00:27:36;;;;;;;3.67;1.80;;;;;;;27.29;47.05;100164.94;1742551;81;21090;-52
2021/08/18 00:30:03;;;;;;;3.37;1.90;;;;;;;27.31;47.06;100167.36;1739272;80;21062;-53
2021/08/18 00:32:29;;;;;;;3.55;1.85;;;;;;;27.30;47.10;100160.16;1740632;80;21125;-54
2021/08/18 00:34:55;;;;;;;3.05;1.62;;;;;;;27.31;47.10;100165.96;1746245;80;21060;-52
2021/08/18 00:37:21;;;;;;;2.67;1.80;;;;;;;27.30;47.12;100162.36;1738655;80;21524;-53
2021/08/18 00:39:47;;;;;;;2.95;1.80;;;;;;;27.31;47.13;100160.38;1730743;80;20888;-54
2021/08/18 00:42:15;;;;;;;2.90;2.08;;;;;;;27.30;47.15;100147.00;1740328;80;21133;-52
2021/08/18 00:44:41;;;;;;;3.45;2.00;;;;;;;27.31;47.16;100157.59;1746877;80;21119;-53
2021/08/18 00:47:08;;;;;;;3.02;2.05;;;;;;;27.30;47.18;100155.97;1741696;80;20981;-54
2021/08/18 00:49:34;;;;;;;2.98;2.00;;;;;;;27.30;47.18;100166.55;1742949;80;21141;-54
2021/08/18 00:52:00;;;;;;;3.37;1.92;;;;;;;27.31;47.18;100168.75;1741842;80;21026;-54
2021/08/18 00:54:27;;;;;;;3.00;1.67;;;;;;;27.30;47.21;100174.94;1732737;80;21080;-54
2021/08/18 00:56:54;;;;;;;2.98;1.90;;;;;;;27.30;47.21;100173.53;1711356;82;21063;-54
2021/08/18 00:59:21;;;;;;;3.85;1.92;;;;;;;27.31;47.23;100185.52;1744654;81;21159;-53
2021/08/18 01:01:47;;;;;;;3.85;2.10;;;;;;;27.31;47.24;100193.31;1727509;81;21323;-55
2021/08/18 01:04:13;;;;;;;3.10;1.77;;;;;;;27.30;47.25;100194.48;1747659;80;20875;-55
2021/08/18 01:06:41;;;;;;;4.08;1.92;;;;;;;27.32;47.28;100201.10;1737105;80;21487;-52
2021/08/18 01:09:08;;;;;;;3.55;1.90;;;;;;;27.32;47.29;100203.89;1745922;80;21070;-54
2021/08/18 01:11:43;;;;;;;3.95;1.90;;;;;;;27.31;47.29;100218.45;1744470;80;21073;-54
2021/08/18 01:14:10;;;;;;;3.98;1.82;;;;;;;27.32;47.34;100217.27;1742178;80;21524;-54
2021/08/18 01:16:38;;;;;;;3.10;1.82;;;;;;;27.33;47.33;100223.67;1735178;80;21054;-54
2021/08/18 01:19:05;;;;;;;3.25;1.98;;;;;;;27.31;47.33;100214.84;1737842;80;21109;-53
2021/08/18 01:21:34;;;;;;;3.22;1.67;;;;;;;27.32;47.35;100210.29;1742151;80;21538;-52
2021/08/18 01:24:01;;;;;;;2.67;1.72;;;;;;;27.32;47.38;100213.67;1738610;80;21123;-54
2021/08/18 01:26:29;;;;;;;2.83;1.70;;;;;;;27.32;47.40;100206.69;1747620;81;21053;-54
2021/08/18 01:28:57;;;;;;;3.60;1.80;;;;;;;27.32;47.42;100203.89;1737919;81;21108;-53
2021/08/18 01:31:24;;;;;;;2.98;1.72;;;;;;;27.31;47.44;100199.48;1734027;80;21059;-53
2021/08/18 01:33:50;;;;;;;3.70;2.10;;;;;;;27.32;47.46;100195.52;1742671;80;22462;-53
2021/08/18 01:36:16;;;;;;;3.08;1.72;;;;;;;27.32;47.48;100199.11;1744024;80;21099;-53
2021/08/18 01:38:42;;;;;;;4.42;1.82;;;;;;;27.32;47.50;100196.91;1745881;80;21116;-52
2021/08/18 01:41:09;;;;;;;2.40;1.50;;;;;;;27.33;47.50;100192.94;1735082;80;21520;-53
2021/08/18 01:43:35;;;;;;;3.45;1.85;;;;;;;27.32;47.53;100194.92;1743932;80;21134;-53
2021/08/18 01:46:01;;;;;;;2.58;1.60;;;;;;;27.31;47.52;100198.09;1709549;82;21063;-52
2021/08/18 01:48:29;;;;;;;4.10;1.62;;;;;;;27.32;47.54;100198.31;1712538;82;21518;-52
2021/08/18 01:50:56;;;;;;;2.20;1.60;;;;;;;27.31;47.56;100198.09;1742036;80;21426;-53
2021/08/18 01:53:24;;;;;;;2.08;1.50;;;;;;;27.32;47.59;100210.29;1735562;80;21068;-53
2021/08/18 01:55:50;;;;;;;3.27;2.02;;;;;;;27.33;47.59;100217.46;1741032;80;21006;-53
2021/08/18 01:58:16;;;;;;;3.05;2.15;;;;;;;27.32;47.59;100215.88;1739219;80;21047;-54
2021/08/18 02:00:42;;;;;;;4.47;2.15;;;;;;;27.32;47.61;100215.06;1736160;80;21695;-53
2021/08/18 02:03:09;;;;;;;4.85;2.25;;;;;;;27.33;47.62;100222.27;1745267;80;22092;-54
2021/08/18 02:05:35;;;;;;;3.67;2.35;;;;;;;27.33;47.63;100221.66;1739697;80;21109;-54
2021/08/18 02:08:02;;;;;;;3.67;2.45;;;;;;;27.32;47.62;100217.27;1740611;80;21044;-54
2021/08/18 02:10:29;;;;;;;3.70;2.80;;;;;;;27.33;47.65;100217.46;1741427;80;21041;-53
2021/08/18 02:12:55;;;;;;;3.98;2.67;;;;;;;27.33;47.65;100214.67;1738835;80;21528;-53
2021/08/18 02:15:30;;;;;;;5.03;2.62;;;;;;;27.34;47.67;100209.89;1743575;80;23260;-52
2021/08/18 02:17:57;;;;;;;3.62;2.40;;;;;;;27.33;47.67;100214.67;1732925;80;21612;-53
2021/08/18 02:20:27;;;;;;;3.85;2.40;;;;;;;27.33;47.67;100202.72;1732459;80;21443;-53
2021/08/18 02:22:54;;;;;;;4.08;2.65;;;;;;;27.33;47.68;100202.09;1740656;80;21172;-52
2021/08/18 02:25:20;;;;;;;3.42;2.80;;;;;;;27.33;47.69;100209.08;1735900;80;21544;-53
2021/08/18 02:27:47;;;;;;;4.37;2.85;;;;;;;27.33;47.69;100215.29;1734541;81;23092;-53
2021/08/18 02:30:16;;;;;;;3.35;2.62;;;;;;;27.34;47.72;100218.27;1744126;80;21122;-53
2021/08/18 02:32:43;;;;;;;2.92;2.50;;;;;;;27.33;47.73;100225.06;1743075;80;21618;-52
2021/08/18 02:35:10;;;;;;;2.77;2.08;;;;;;;27.34;47.74;100226.66;1747674;80;21845;-53
2021/08/18 02:37:36;;;;;;;3.47;2.30;;;;;;;27.34;47.75;100230.25;1735633;80;21578;-53
2021/08/18 02:40:05;;;;;;;3.42;2.55;;;;;;;27.34;47.77;100232.23;1709778;82;21995;-54
2021/08/18 02:42:31;;;;;;;3.25;2.40;;;;;;;27.34;47.79;100228.05;1710611;82;21095;-53
2021/08/18 02:44:57;;;;;;;3.33;1.90;;;;;;;27.35;47.83;100225.48;1708089;82;21011;-53
2021/08/18 02:47:23;;;;;;;2.72;1.92;;;;;;;27.35;47.84;100215.70;1743700;80;21041;-52
2021/08/18 02:49:50;;;;;;;3.65;2.50;;;;;;;27.36;47.83;100227.09;1742092;80;21103;-51
2021/08/18 02:52:16;;;;;;;4.00;2.70;;;;;;;27.36;47.86;100207.54;1737253;80;20990;-54
2021/08/18 02:54:42;;;;;;;3.30;2.30;;;;;;;27.36;47.89;100210.33;1744769;80;21112;-54
2021/08/18 02:57:08;;;;;;;4.60;2.40;;;;;;;27.36;47.95;100215.33;1735723;81;21101;-52
2021/08/18 02:59:34;;;;;;;4.03;2.47;;;;;;;27.36;47.96;100213.13;1741533;80;21568;-53
2021/08/18 03:02:00;;;;;;;5.85;3.52;;;;;;;27.36;47.99;100207.54;1735757;80;21411;-53
2021/08/18 03:04:27;;;;;;;4.78;3.30;;;;;;;27.35;48.05;100213.72;1737104;80;21146;-53
2021/08/18 03:06:54;;;;;;;6.15;3.52;;;;;;;27.36;48.05;100214.52;1739013;80;21043;-53
2021/08/18 03:09:22;;;;;;;4.42;3.17;;;;;;;27.36;48.05;100213.94;1733372;80;21141;-52
2021/08/18 03:11:50;;;;;;;4.40;3.50;;;;;;;27.35;48.09;100220.70;1734073;80;21355;-53
2021/08/18 03:14:17;;;;;;;4.55;3.22;;;;;;;27.37;48.10;100211.95;1746490;80;21296;-52
2021/08/18 03:16:43;;;;;;;5.22;3.52;;;;;;;27.36;48.11;100201.36;1742067;80;21116;-53
2021/08/18 03:19:09;;;;;;;4.17;3.15;;;;;;;27.36;48.13;100199.16;1734583;80;21063;-53
2021/08/18 03:21:35;;;;;;;4.70;3.25;;;;;;;27.36;48.16;100197.17;1737859;80;21104;-54
2021/08/18 03:24:02;;;;;;;5.25;3.65;;;;;;;27.37;48.16;100189.60;1736152;80;21104;-53
2021/08/18 03:26:28;;;;;;;5.72;3.45;;;;;;;27.35;48.17;100187.17;1742181;80;21111;-52
2021/08/18 03:28:54;;;;;;;5.53;4.10;;;;;;;27.35;48.18;100180.19;1740281;81;21046;-51
2021/08/18 03:31:20;;;;;;;5.97;3.98;;;;;;;27.35;48.19;100182.98;1744170;80;20943;-53
2021/08/18 03:33:46;;;;;;;5.17;3.45;;;;;;;27.36;48.18;100183.20;1739366;81;21107;-54
2021/08/18 03:36:12;;;;;;;5.45;3.75;;;;;;;27.35;48.21;100182.98;1706887;82;21079;-53
2021/08/18 03:38:38;;;;;;;4.83;3.35;;;;;;;27.36;48.20;100187.40;1745639;81;21725;-51
2021/08/18 03:41:04;;;;;;;5.33;3.65;;;;;;;27.37;48.22;100195.19;1734138;81;23230;-54
2021/08/18 03:43:30;;;;;;;5.03;3.98;;;;;;;27.36;48.21;100192.17;1739599;81;21070;-52
2021/08/18 03:45:56;;;;;;;5.00;3.67;;;;;;;27.36;48.21;100195.78;1738919;81;21570;-53
2021/08/18 03:48:22;;;;;;;5.40;3.10;;;;;;;27.37;48.22;100209.94;1731771;80;20929;-52
2021/08/18 03:50:48;;;;;;;5.62;3.08;;;;;;;27.38;48.24;100206.55;1730315;80;21094;-48
2021/08/18 03:53:16;;;;;;;4.28;2.72;;;;;;;27.38;48.25;100202.36;1733320;80;21526;-49
2021/08/18 03:55:43;;;;;;;3.80;2.98;;;;;;;27.37;48.27;100195.97;1722929;82;21070;-52
2021/08/18 03:58:09;;;;;;;6.00;4.10;;;;;;;27.39;48.28;100191.41;1723000;80;21645;-53
2021/08/18 04:00:35;;;;;;;6.53;3.87;;;;;;;27.39;48.29;100197.81;1724155;80;21789;-51
2021/08/18 04:03:01;;;;;;;4.72;3.85;;;;;;;27.39;48.30;100188.03;1729951;80;21077;-54
2021/08/18 04:05:28;;;;;;;7.22;4.20;;;;;;;27.39;48.30;100194.20;1703670;82;22649;-55
2021/08/18 04:07:54;;;;;;;6.20;3.95;;;;;;;27.39;48.32;100183.03;1730597;80;21549;-47
2021/08/18 04:10:21;;;;;;;7.25;3.77;;;;;;;27.40;48.33;100187.44;1721441;80;21096;-47
2021/08/18 04:12:53;;;;;;;3.95;3.40;;;;;;;27.39;48.33;100184.42;1734582;80;21010;-48
2021/08/18 04:15:23;;;;;;;4.50;3.98;;;;;;;27.39;48.33;100181.63;1727152;80;21045;-50
2021/08/18 04:17:49;;;;;;;6.40;3.75;;;;;;;27.40;48.34;100190.23;1730165;81;21073;-52
2021/08/18 04:20:15;;;;;;;6.90;4.60;;;;;;;27.39;48.34;100185.23;1722116;81;21435;-51
2021/08/18 04:22:42;;;;;;;5.53;3.52;;;;;;;27.41;48.36;100191.85;1726686;81;21039;-53
2021/08/18 04:25:10;;;;;;;5.20;3.33;;;;;;;27.40;48.36;100182.66;1724500;81;21071;-53
2021/08/18 04:27:38;;;;;;;7.08;3.77;;;;;;;27.41;48.35;100183.47;1730721;81;21092;-50
2021/08/18 04:30:06;;;;;;;9.88;4.55;;;;;;;27.41;48.34;100184.87;1731191;80;21290;-49
2021/08/18 04:32:32;;;;;;;7.90;4.70;;;;;;;27.41;48.35;100177.88;1703254;82;21084;-53
2021/08/18 04:34:58;;;;;;;9.35;4.72;;;;;;;27.42;48.38;100183.66;1704156;82;21123;-52
2021/08/18 04:37:24;;;;;;;7.80;5.20;;;;;;;27.42;48.40;100187.27;1705225;82;22023;-50
2021/08/18 04:39:50;;;;;;;8.73;5.15;;;;;;;27.41;48.44;100184.28;1730641;80;21041;-48
2021/08/18 04:42:16;;;;;;;5.70;4.42;;;;;;;27.43;48.47;100185.28;1726166;80;21338;-48
2021/08/18 04:44:42;;;;;;;6.42;4.80;;;;;;;27.42;48.50;100181.67;1724284;81;20953;-50
2021/08/18 04:47:09;;;;;;;7.17;4.42;;;;;;;27.43;48.52;100178.30;1724182;80;21071;-53
2021/08/18 04:49:35;;;;;;;7.25;4.35;;;;;;;27.43;48.53;100169.91;1726160;80;21000;-52
2021/08/18 04:52:01;;;;;;;5.53;4.10;;;;;;;27.43;48.53;100181.89;1729362;80;21553;-49
2021/08/18 04:54:27;;;;;;;13.13;5.05;;;;;;;27.43;48.53;100167.92;1724534;80;23215;-52
2021/08/18 04:56:53;;;;;;;5.62;4.17;;;;;;;27.44;48.55;100179.91;1726547;80;21086;-49
2021/08/18 04:59:19;;;;;;;3.12;1.72;;;;;;;27.44;48.56;100182.70;1729093;80;21545;-52
2021/08/18 05:01:45;;;;;;;26.42;8.15;;;;;;;27.44;48.52;100182.12;1719009;80;21164;-51
2021/08/18 05:04:11;;;;;;;7.00;3.10;;;;;;;27.45;48.51;100184.32;1731863;80;21714;-50
2021/08/18 05:06:37;;;;;;;11.08;4.35;;;;;;;27.44;48.54;100183.52;1733798;80;21226;-52
2021/08/18 05:09:04;;;;;;;92.97;27.62;;;;;;;27.45;48.55;100192.70;1719024;80;21046;-50
2021/08/18 05:11:30;;;;;;;6.70;4.15;;;;;;;27.46;48.58;100194.29;1730907;80;20994;-53
2021/08/18 05:13:56;;;;;;;6.28;3.77;;;;;;;27.46;48.57;100189.52;1725435;81;21104;-50
2021/08/18 05:16:22;;;;;;;5.33;4.10;;;;;;;27.47;48.55;100185.57;1729430;80;21047;-50
2021/08/18 05:18:48;;;;;;;6.42;3.85;;;;;;;27.47;48.56;100200.94;1731355;80;21471;-50
2021/08/18 05:21:14;;;;;;;5.58;4.03;;;;;;;27.48;48.55;100191.38;1714256;80;20955;-50
2021/08/18 05:23:40;;;;;;;6.15;4.53;;;;;;;27.49;48.56;100195.80;1719696;80;20928;-49
2021/08/18 05:26:07;;;;;;;8.40;4.87;;;;;;;27.50;48.60;100193.77;1729132;80;21632;-49
2021/08/18 05:28:33;;;;;;;6.58;4.12;;;;;;;27.50;48.68;100198.77;1729034;80;21059;-49
2021/08/18 05:30:59;;;;;;;5.95;3.37;;;;;;;27.51;48.71;100202.38;1728823;80;22166;-51
2021/08/18 05:33:25;;;;;;;5.10;3.70;;;;;;;27.50;48.70;100192.38;1730907;80;21086;-53
2021/08/18 05:35:51;;;;;;;5.35;3.33;;;;;;;27.50;48.70;100189.58;1724661;81;21530;-55
2021/08/18 05:38:17;;;;;;;4.87;3.52;;;;;;;27.50;48.68;100191.79;1728130;80;21133;-52
2021/08/18 05:40:44;;;;;;;5.95;3.90;;;;;;;27.50;48.66;100193.19;1723278;80;21073;-49
2021/08/18 05:43:13;;;;;;;5.90;4.50;;;;;;;27.50;48.68;100201.57;1731858;80;22017;-52
2021/08/18 05:45:39;;;;;;;5.47;4.12;;;;;;;27.50;48.71;100204.36;1722337;80;21004;-52
2021/08/18 05:48:05;;;;;;;5.40;3.80;;;;;;;27.51;48.70;100198.19;1727232;80;21106;-52
2021/08/18 05:50:31;;;;;;;6.70;3.75;;;;;;;27.50;48.68;100206.34;1731646;80;21643;-53
2021/08/18 05:52:57;;;;;;;4.92;3.90;;;;;;;27.52;48.67;100210.98;1725209;80;21087;-51
2021/08/18 05:55:24;;;;;;;5.95;3.72;;;;;;;27.50;48.66;100216.94;1716394;80;21107;-50
2021/08/18 05:57:51;;;;;;;6.50;4.17;;;;;;;27.51;48.66;100217.16;1728915;80;21473;-51
2021/08/18 06:00:18;;;;;;;5.92;4.58;;;;;;;27.51;48.66;100225.53;1731480;80;21017;-49
2021/08/18 06:02:44;;;;;;;8.48;4.22;;;;;;;27.52;48.65;100230.54;1728480;80;21510;-49
2021/08/18 06:05:11;;;;;;;7.03;4.45;;;;;;;27.52;48.65;100233.33;1731459;80;21049;-52
2021/08/18 06:07:37;;;;;;;7.10;4.80;;;;;;;27.52;48.63;100233.33;1727655;80;21565;-51
2021/08/18 06:10:04;;;;;;;5.62;4.25;;;;;;;27.52;48.64;100235.54;1728171;80;20920;-51
2021/08/18 06:12:30;;;;;;;4.90;3.90;;;;;;;27.52;48.65;100236.13;1723906;80;21017;-49
2021/08/18 06:14:56;;;;;;;6.78;3.55;;;;;;;27.52;48.63;100241.72;1736109;80;21039;-52
2021/08/18 06:17:22;;;;;;;7.62;4.40;;;;;;;27.52;48.63;100247.30;1702310;82;20905;-50
2021/08/18 06:19:48;;;;;;;5.00;3.42;;;;;;;27.51;48.64;100252.08;1703845;82;21557;-50
2021/08/18 06:22:15;;;;;;;5.72;3.50;;;;;;;27.51;48.61;100252.67;1705542;82;21064;-51
2021/08/18 06:24:42;;;;;;;6.25;3.83;;;;;;;27.51;48.63;100259.06;1726051;80;21064;-51
2021/08/18 06:27:10;;;;;;;5.70;4.20;;;;;;;27.53;48.64;100251.72;1721719;81;20995;-49
2021/08/18 06:29:37;;;;;;;6.25;4.10;;;;;;;27.51;48.63;100247.89;1728870;80;21087;-51
2021/08/18 06:32:04;;;;;;;5.10;3.95;;;;;;;27.53;48.63;100255.91;1731294;80;21474;-51
2021/08/18 06:34:30;;;;;;;5.75;3.92;;;;;;;27.53;48.63;100255.31;1734967;80;21073;-49
2021/08/18 06:37:02;;;;;;;6.35;4.55;;;;;;;27.54;48.63;100256.12;1726847;80;22385;-52
2021/08/18 06:39:25;;;;;;;5.75;4.25;;;;;;;27.54;48.65;100254.11;1688760;82;21717;-49
2021/08/18 06:41:51;;;;;;;5.60;4.15;;;;;;;27.54;48.63;100268.08;1736157;80;20936;-52
2021/08/18 06:44:18;;;;;;;4.62;4.08;;;;;;;27.55;48.62;100266.09;1738955;80;21126;-53
2021/08/18 06:46:44;;;;;;;6.40;4.40;;;;;;;27.55;48.63;100284.26;1733233;80;21067;-49
2021/08/18 06:49:10;;;;;;;6.08;4.65;;;;;;;27.55;48.64;100294.04;1726229;80;20930;-51
2021/08/18 06:51:36;;;;;;;6.65;4.78;;;;;;;27.54;48.64;100301.62;1725707;80;21177;-51
2021/08/18 06:54:02;;;;;;;7.30;4.35;;;;;;;27.54;48.65;100300.84;1734419;80;21021;-51
2021/08/18 06:56:28;;;;;;;5.90;4.08;;;;;;;27.53;48.66;100309.81;1728605;80;21292;-53
2021/08/18 06:58:54;;;;;;;6.65;4.58;;;;;;;27.54;48.68;100310.62;1726062;80;21636;-52
2021/08/18 07:01:21;;;;;;;8.55;5.28;;;;;;;27.54;48.68;100319.00;1731955;80;21017;-51
2021/08/18 07:03:47;;;;;;;7.42;5.03;;;;;;;27.52;48.59;100316.57;1723378;81;21528;-53
2021/08/18 07:06:13;;;;;;;7.58;4.72;;;;;;;27.49;48.40;100308.14;1727643;80;20935;-53
2021/08/18 07:08:39;;;;;;;8.13;5.20;;;;;;;27.44;48.18;100307.03;1719434;80;21196;-53
2021/08/18 07:11:05;;;;;;;8.40;4.72;;;;;;;27.40;47.91;100308.97;1729010;80;20903;-54
2021/08/18 07:13:31;;;;;;;6.97;5.10;;;;;;;27.37;47.66;100311.13;1734146;80;21129;-53
2021/08/18 07:15:57;;;;;;;7.37;5.20;;;;;;;27.35;47.60;100309.28;1719930;82;20916;-53
2021/08/18 07:18:24;;;;;;;6.20;4.40;;;;;;;27.35;47.66;100311.48;1720874;82;21050;-51
2021/08/18 07:20:51;;;;;;;4.90;4.30;;;;;;;27.34;47.41;100303.47;1700865;82;21576;-51
2021/08/18 07:23:17;;;;;;;5.90;4.78;;;;;;;27.33;47.16;100307.47;1726418;81;21057;-53
2021/08/18 07:25:43;;;;;;;6.30;4.65;;;;;;;27.30;47.01;100304.01;1719956;82;21079;-51
2021/08/18 07:28:10;;;;;;;6.20;5.05;;;;;;;27.30;47.16;100301.21;1695661;82;21534;-50
2021/08/18 07:30:36;;;;;;;5.37;4.55;;;;;;;27.30;46.91;100297.83;1697142;82;21012;-52
2021/08/18 07:33:02;;;;;;;6.22;5.28;;;;;;;27.27;46.62;100309.77;1736693;80;21197;-53
2021/08/18 07:35:28;;;;;;;5.70;4.83;;;;;;;27.26;46.61;100308.14;1733748;80;20979;-52
2021/08/18 07:37:55;;;;;;;7.85;4.92;;;;;;;27.26;46.67;100308.95;1727060;80;21062;-50
2021/08/18 07:40:22;;;;;;;6.83;4.70;;;;;;;27.24;46.40;100304.32;1726384;80;21050;-50
2021/08/18 07:42:49;;;;;;;5.85;4.65;;;;;;;27.22;46.19;100313.68;1731353;80;21046;-53
2021/08/18 07:45:15;;;;;;;5.65;4.75;;;;;;;27.23;46.30;100313.91;1727459;80;21616;-49
2021/08/18 07:47:41;;;;;;;5.20;4.55;;;;;;;27.24;46.23;100313.31;1728454;80;20916;-53
2021/08/18 07:50:09;;;;;;;6.87;4.72;;;;;;;27.21;45.96;100309.27;1727176;81;21094;-53
2021/08/18 07:52:36;;;;;;;5.83;4.65;;;;;;;27.20;45.84;100310.44;1739045;80;21096;-53
2021/08/18 07:55:05;;;;;;;5.08;4.35;;;;;;;27.19;46.01;100306.06;1742724;81;21028;-54
2021/08/18 07:57:34;;;;;;;6.90;4.95;;;;;;;27.19;45.79;100297.68;1745928;80;21599;-52
2021/08/18 07:59:59;;;;;;;6.70;5.15;;;;;;;27.17;45.54;100290.84;1740438;80;21062;-52
2021/08/18 08:02:25;;;;;;;5.92;4.83;;;;;;;27.15;45.59;100289.02;1744502;80;21097;-53
2021/08/18 08:04:51;;;;;;;5.35;4.55;;;;;;;27.15;45.64;100288.44;1742245;80;20895;-53
2021/08/18 08:07:17;;;;;;;5.35;4.33;;;;;;;27.14;45.39;100297.18;1740378;80;21061;-54
2021/08/18 08:09:44;;;;;;;6.85;4.75;;;;;;;27.10;45.19;100292.94;1705477;82;21533;-51
2021/08/18 08:12:10;;;;;;;7.12;4.83;;;;;;;27.10;45.38;100294.92;1711847;82;21048;-54
2021/08/18 08:14:36;;;;;;;5.90;4.58;;;;;;;27.09;45.31;100295.51;1740566;81;20961;-54
2021/08/18 08:17:04;;;;;;;6.50;4.62;;;;;;;27.08;45.06;100295.88;1744476;81;21964;-53
2021/08/18 08:19:30;;;;;;;5.05;4.33;;;;;;;27.05;44.99;100293.25;1735915;80;21282;-55
2021/08/18 08:21:56;;;;;;;5.40;4.50;;;;;;;27.06;45.16;100295.45;1733667;81;21304;-54
2021/08/18 08:24:23;;;;;;;5.60;4.45;;;;;;;27.06;44.96;100291.27;1735712;80;21006;-53
2021/08/18 08:26:49;;;;;;;5.80;5.00;;;;;;;27.03;44.69;100284.42;1740927;81;21044;-55
2021/08/18 08:29:15;;;;;;;4.85;4.30;;;;;;;27.03;44.76;100290.01;1736224;81;21876;-54
2021/08/18 08:31:42;;;;;;;5.25;4.20;;;;;;;27.04;44.85;100286.05;1737057;80;21055;-51
2021/08/18 08:34:09;;;;;;;5.05;4.30;;;;;;;27.05;44.59;100292.44;1732085;80;21308;-54
2021/08/18 08:36:36;;;;;;;5.75;4.67;;;;;;;27.03;44.43;100291.41;1739996;80;21572;-55
2021/08/18 08:39:03;;;;;;;6.10;4.50;;;;;;;27.04;44.62;100290.23;1742769;80;21034;-51
2021/08/18 08:41:31;;;;;;;5.12;3.95;;;;;;;27.06;44.56;100293.47;1735700;80;21468;-54
2021/08/18 08:43:57;;;;;;;5.83;4.53;;;;;;;27.06;44.30;100296.85;1748706;81;21065;-59
2021/08/18 08:46:23;;;;;;;6.65;4.50;;;;;;;27.04;44.25;100298.61;1741080;80;21185;-52
2021/08/18 08:48:49;;;;;;;5.95;4.50;;;;;;;27.05;44.42;100298.02;1737760;80;21102;-49
2021/08/18 08:51:16;;;;;;;7.25;4.58;;;;;;;27.05;44.30;100301.63;1735287;80;21086;-49
2021/08/18 08:53:42;;;;;;;6.65;4.45;;;;;;;27.05;44.14;100302.21;1728348;80;21357;-53
2021/08/18 08:56:08;;;;;;;7.15;4.55;;;;;;;27.04;44.27;100291.63;1731169;80;21134;-48
2021/08/18 08:58:34;;;;;;;6.60;4.62;;;;;;;27.05;44.43;100289.06;1726860;80;21525;-47
2021/08/18 09:01:01;;;;;;;6.58;4.85;;;;;;;27.06;44.25;100291.27;1724843;80;21592;-49
2021/08/18 09:03:27;;;;;;;7.85;5.10;;;;;;;27.05;44.22;100295.23;1725744;80;21103;-49
2021/08/18 09:06:04;;;;;;;5.65;4.30;;;;;;;27.05;44.39;100297.44;1721964;80;20927;-47
2021/08/18 09:08:30;;;;;;;6.35;4.83;;;;;;;27.06;44.57;100300.45;1713988;80;21617;-48
2021/08/18 09:11:10;;;;;;;8.78;4.90;;;;;;;27.07;44.69;100299.28;1725687;80;23318;-50
2021/08/18 09:13:51;;;;;;;6.30;4.70;;;;;;;27.07;44.79;100289.51;1707957;82;21475;-47
2021/08/18 09:16:24;;;;;;;9.98;4.62;;;;;;;27.07;44.85;100288.11;1722973;80;21047;-48
2021/08/18 09:18:52;;;;;;;5.83;4.65;;;;;;;27.08;44.92;100288.30;1731065;80;21114;-48
2021/08/18 09:21:41;;;;;;;7.33;4.78;;;;;;;27.09;44.98;100285.73;1727933;80;21375;-46
2021/08/18 09:24:24;;;;;;;15.88;4.60;;;;;;;27.09;45.00;100284.34;1735842;80;21161;-49
2021/08/18 09:27:08;;;;;;;6.70;4.55;;;;;;;27.11;45.04;100283.98;1728327;82;21063;-48
2021/08/18 09:29:33;;;;;;;;;;;;;;;27.12;45.08;100279.39;1725871;82;21009;-46
2021/08/18 09:32:32;;;;;;;6.03;4.10;;;;;;;27.12;45.12;100278.58;1725144;80;20186;-46
2021/08/18 09:35:10;;;;;;;8.50;4.22;;;;;;;27.11;45.15;100272.80;1721710;80;21106;-47
2021/08/18 09:37:43;;;;;;;6.30;4.70;;;;;;;27.12;45.20;100265.44;1724695;80;22004;-47
2021/08/18 09:40:23;;;;;;;6.22;4.65;;;;;;;27.14;45.24;100263.09;1706040;82;21024;-48
2021/08/18 09:42:50;;;;;;;8.98;4.55;;;;;;;27.15;45.29;100251.33;1721562;81;21547;-47
2021/08/18 09:45:27;;;;;;;9.03;4.65;;;;;;;27.15;45.35;100233.98;1738218;80;21032;-46
2021/08/18 09:48:06;;;;;;;5.03;4.08;;;;;;;27.17;45.39;100230.20;1726188;80;21546;-46
2021/08/18 09:50:45;;;;;;;4.97;4.28;;;;;;;27.18;45.40;100240.20;1726084;80;21067;-47
2021/08/18 09:53:28;;;;;;;5.77;4.40;;;;;;;27.20;45.43;100244.81;1704986;82;21443;-47
2021/08/18 09:56:03;;;;;;;5.33;4.08;;;;;;;27.21;45.44;100243.63;1705857;82;21016;-46
2021/08/18 09:58:42;;;;;;;7.80;3.92;;;;;;;27.21;45.45;100236.66;1724502;80;21057;-46
2021/08/18 10:01:11;;;;;;;5.47;4.45;;;;;;;27.22;45.45;100242.46;1748287;80;21041;-47
2021/08/18 10:03:39;;;;;;;5.03;4.00;;;;;;;27.23;45.47;100241.28;1727363;80;21063;-47
2021/08/18 10:06:07;;;;;;;5.92;4.20;;;;;;;27.25;45.46;100239.49;1734879;80;21137;-47
2021/08/18 10:08:34;;;;;;;6.55;4.10;;;;;;;27.26;45.48;100236.33;1725883;80;21079;-48
2021/08/18 10:11:00;;;;;;;8.13;4.28;;;;;;;27.28;45.51;100244.94;1724967;80;21021;-47
2021/08/18 10:13:26;;;;;;;7.05;4.40;;;;;;;27.28;45.52;100243.54;1720505;80;21554;-48
2021/08/18 10:15:53;;;;;;;7.55;4.65;;;;;;;27.29;45.53;100251.52;1724396;80;21533;-48
2021/08/18 10:18:36;;;;;;;5.00;4.12;;;;;;;27.31;45.56;100253.36;1730707;81;21040;-48
2021/08/18 10:21:11;;;;;;;5.33;4.42;;;;;;;27.31;45.58;100253.36;1707346;80;21099;-47
2021/08/18 10:24:05;;;;;;;7.08;4.60;;;;;;;27.32;45.61;100251.38;1706483;82;21422;-48
2021/08/18 10:26:40;;;;;;;5.90;4.08;;;;;;;27.33;45.62;100248.19;1735031;80;21059;-48
2021/08/18 10:29:13;;;;;;;6.03;4.10;;;;;;;27.34;45.66;100253.19;1725758;80;21127;-47
2021/08/18 10:31:47;;;;;;;6.72;4.42;;;;;;;27.35;45.68;100252.02;1726940;80;21028;-49
2021/08/18 10:34:38;;;;;;;4.85;4.20;;;;;;;27.36;45.70;100248.05;1725531;80;21418;-47
2021/08/18 10:37:07;;;;;;;5.37;4.37;;;;;;;27.36;45.75;100247.45;1735883;80;21825;-48
2021/08/18 10:39:51;;;;;;;6.67;4.50;;;;;;;27.36;45.75;100242.45;1726753;82;21761;-47
2021/08/18 10:42:21;;;;;;;5.33;4.55;;;;;;;27.38;45.78;100247.06;1725598;80;21102;-47
2021/08/18 10:44:50;;;;;;;6.67;4.22;;;;;;;27.40;45.82;100247.50;1701260;82;21084;-48
2021/08/18 10:47:27;;;;;;;6.78;4.05;;;;;;;27.40;45.85;100240.52;1731689;80;21047;-48
2021/08/18 10:50:00;;;;;;;6.62;4.42;;;;;;;27.41;45.90;100237.36;1729588;80;21042;-47
2021/08/18 10:52:32;;;;;;;4.87;3.95;;;;;;;27.43;45.92;100235.56;1734970;80;21032;-51
2021/08/18 10:55:16;;;;;;;6.30;4.30;;;;;;;27.43;45.96;100239.17;1705057;82;21888;-47
2021/08/18 10:57:54;;;;;;;4.87;4.37;;;;;;;27.44;45.99;100231.59;1723503;80;21588;-49
2021/08/18 11:00:37;;;;;;;7.72;4.17;;;;;;;27.46;46.03;100230.61;1727164;80;21226;-48
2021/08/18 11:03:14;;;;;;;4.92;3.90;;;;;;;27.46;46.08;100223.63;1729527;80;21597;-48
2021/08/18 11:05:49;;;;;;;5.92;4.03;;;;;;;27.46;46.12;100220.24;1735651;80;21133;-47
2021/08/18 11:08:37;;;;;;;5.17;4.33;;;;;;;27.48;46.14;100219.91;1695203;82;21495;-50
2021/08/18 11:11:09;;;;;;;4.60;3.90;;;;;;;27.48;46.17;100214.32;1690508;83;21063;-47
2021/08/18 11:13:46;;;;;;;5.15;3.90;;;;;;;27.49;46.20;100221.52;1702746;83;21124;-47
2021/08/18 11:16:27;;;;;;;5.67;4.20;;;;;;;27.49;46.22;100213.95;1705477;83;38634;-49
2021/08/18 11:18:59;;;;;;;6.03;4.22;;;;;;;27.51;46.24;100216.34;1701862;83;21031;-49
2021/08/18 11:21:29;;;;;;;6.33;4.35;;;;;;;27.51;46.25;100209.36;1702466;83;22040;-48
2021/08/18 11:24:00;;;;;;;4.47;3.87;;;;;;;27.51;46.29;100212.16;1704279;83;21150;-50
2021/08/18 11:26:30;;;;;;;4.15;3.65;;;;;;;27.52;46.31;100203.99;1705691;83;21062;-49
2021/08/18 11:29:07;;;;;;;4.75;4.25;;;;;;;27.53;46.34;100201.42;1703392;83;21150;-47